Time;durP1;ratioP1;P1;durP2;ratioP2;P2;SDS_P1;SDS_P2;PMS_P1;PMS_P2;Temp;Humidity;BMP_temperature;BMP_pressure;BME280_temperature;BME280_humidity;BME280_pressure;Samples;Min_cycle;Max_cycle;Signal;HPM_P1;HPM_P2
2023/08/24 00:01:56;;;;;;;9.45;5.43;;;;;;;18.25;90.59;101722.63;5096119;28;20035;-53
2023/08/24 00:04:22;;;;;;;9.57;5.97;;;;;;;18.24;91.11;101711.03;5102969;28;20453;-56
2023/08/24 00:06:48;;;;;;;7.65;5.90;;;;;;;18.23;91.17;101719.25;5099998;28;20027;-57
2023/08/24 00:09:15;;;;;;;8.18;6.05;;;;;;;18.21;90.77;101726.63;5098887;28;20024;-57
2023/08/24 00:11:40;;;;;;;9.43;6.05;;;;;;;18.19;91.18;101734.81;5100328;28;20378;-56
2023/08/24 00:14:06;;;;;;;9.65;6.05;;;;;;;18.18;89.93;101740.34;5103570;28;20028;-57
2023/08/24 00:16:32;;;;;;;8.45;5.72;;;;;;;18.17;91.37;101738.63;5094353;28;20027;-57
2023/08/24 00:18:57;;;;;;;7.85;5.63;;;;;;;18.14;91.82;101722.81;5096863;28;20073;-56
2023/08/24 00:21:23;;;;;;;7.00;5.78;;;;;;;18.16;91.36;101718.97;5101810;28;20440;-55
2023/08/24 00:23:50;;;;;;;9.48;6.40;;;;;;;18.14;92.17;101704.00;5097395;28;20032;-56
2023/08/24 00:26:18;;;;;;;10.55;5.90;;;;;;;18.09;92.73;101694.53;5101021;28;20028;-56
2023/08/24 00:28:44;;;;;;;10.38;6.20;;;;;;;18.12;92.15;101710.38;5097984;28;20073;-56
2023/08/24 00:31:09;;;;;;;8.27;5.93;;;;;;;18.08;92.54;101714.31;5102104;28;20024;-55
2023/08/24 00:33:36;;;;;;;10.77;6.05;;;;;;;18.06;92.16;101708.25;5099687;28;20392;-55
2023/08/24 00:36:02;;;;;;;10.75;6.28;;;;;;;18.08;92.69;101708.09;5101909;28;20039;-57
2023/08/24 00:38:28;;;;;;;8.15;6.07;;;;;;;18.06;93.26;101704.72;5098970;28;20488;-54
2023/08/24 00:40:53;;;;;;;8.55;6.00;;;;;;;18.04;93.62;101698.66;5101279;28;20354;-54
2023/08/24 00:43:24;;;;;;;10.07;6.32;;;;;;;18.04;93.15;101686.03;5098997;28;20020;-56
2023/08/24 00:45:55;;;;;;;11.18;6.78;;;;;;;17.98;93.63;101680.41;5097679;28;20054;-53
2023/08/24 00:48:25;;;;;;;10.00;6.30;;;;;;;17.99;93.69;101680.25;5105445;28;20028;-53
2023/08/24 00:50:51;;;;;;;8.57;6.30;;;;;;;18.03;93.08;101689.72;5102013;28;20119;-56
2023/08/24 00:53:18;;;;;;;7.75;5.70;;;;;;;18.03;92.65;101692.41;5104903;28;20086;-57
2023/08/24 00:55:44;;;;;;;6.85;5.75;;;;;;;17.98;93.34;101692.00;5101350;28;20385;-56
2023/08/24 00:58:10;;;;;;;10.75;6.20;;;;;;;18.01;93.90;101694.41;5105480;28;20020;-56
2023/08/24 01:00:35;;;;;;;12.80;6.53;;;;;;;18.03;92.97;101694.25;5099909;28;20355;-56
2023/08/24 01:03:00;;;;;;;10.13;6.05;;;;;;;17.98;94.37;101689.31;5104291;28;20062;-53
2023/08/24 01:05:26;;;;;;;8.30;6.45;;;;;;;18.00;94.08;101683.78;5099170;28;20032;-55
2023/08/24 01:07:51;;;;;;;10.07;5.72;;;;;;;18.01;94.08;101683.66;5103317;28;20016;-55
2023/08/24 01:10:16;;;;;;;10.77;6.07;;;;;;;18.00;93.74;101689.16;5103225;28;20065;-56
2023/08/24 01:13:29;;;;;;;10.32;6.07;;;;;;;18.05;92.44;101690.44;5103028;28;20034;-55
2023/08/24 01:16:18;;;;;;;9.52;6.97;;;;;;;18.00;93.21;101697.22;5008637;28;20135;-56
2023/08/24 01:18:44;;;;;;;;;;;;;;;18.09;90.51;101689.13;5009594;28;20042;-56
2023/08/24 01:21:10;;;;;;;8.07;5.93;;;;;;;18.00;93.63;101690.03;5076326;28;19904;-56
2023/08/24 01:23:48;;;;;;;7.93;6.95;;;;;;;18.00;93.92;101675.72;5102713;28;20031;-55
2023/08/24 01:26:19;;;;;;;7.88;5.90;;;;;;;17.96;94.18;101679.72;5100680;28;20028;-54
2023/08/24 01:28:46;;;;;;;10.13;7.05;;;;;;;17.98;94.86;101678.56;5100636;28;20020;-56
2023/08/24 01:31:15;;;;;;;11.13;6.78;;;;;;;17.96;94.56;101671.66;5103062;28;20028;-56
2023/08/24 01:33:40;;;;;;;10.70;6.55;;;;;;;18.00;94.82;101695.41;5106100;28;20427;-53
2023/08/24 01:36:06;;;;;;;16.60;7.10;;;;;;;18.00;94.47;101690.03;5103156;28;20025;-56
2023/08/24 01:38:32;;;;;;;10.02;6.90;;;;;;;18.02;94.75;101679.09;5102883;28;20020;-55
2023/08/24 01:41:19;;;;;;;8.93;6.85;;;;;;;18.04;93.57;101675.28;5103498;28;20024;-56
2023/08/24 01:43:49;;;;;;;11.20;6.65;;;;;;;18.01;94.66;101674.75;5098515;28;20024;-56
2023/08/24 01:46:17;;;;;;;8.80;6.30;;;;;;;18.02;94.60;101671.03;5099170;28;20032;-56
2023/08/24 01:48:44;;;;;;;11.48;6.75;;;;;;;18.05;95.42;101681.50;5105668;28;20517;-54
2023/08/24 01:51:10;;;;;;;11.57;6.60;;;;;;;18.07;95.20;101676.84;5101783;28;20111;-54
2023/08/24 01:53:37;;;;;;;12.35;6.53;;;;;;;18.07;94.95;101676.84;5105394;28;20031;-56
2023/08/24 01:56:10;;;;;;;10.68;6.78;;;;;;;18.06;94.49;101683.22;5101228;28;20032;-56
2023/08/24 01:58:35;;;;;;;10.80;6.90;;;;;;;18.06;95.40;101688.59;5103565;28;20062;-56
2023/08/24 02:01:01;;;;;;;8.73;6.70;;;;;;;18.05;95.06;101686.88;5098401;28;20070;-53
2023/08/24 02:03:26;;;;;;;10.23;6.78;;;;;;;18.08;94.87;101679.38;5102325;28;20019;-56
2023/08/24 02:05:51;;;;;;;9.93;7.40;;;;;;;18.09;94.99;101678.38;5101222;28;20032;-53
2023/08/24 02:08:17;;;;;;;10.50;7.33;;;;;;;18.08;95.61;101678.53;5100871;28;20161;-55
2023/08/24 02:10:42;;;;;;;14.18;6.88;;;;;;;18.11;95.59;101662.13;5099922;28;20282;-54
2023/08/24 02:13:07;;;;;;;12.57;6.55;;;;;;;18.12;95.58;101653.06;5103556;28;20038;-53
2023/08/24 02:15:33;;;;;;;10.15;6.80;;;;;;;18.12;95.80;101661.13;5105346;28;20031;-56
2023/08/24 02:17:59;;;;;;;11.48;6.93;;;;;;;18.12;95.77;101661.13;5099583;28;20474;-54
2023/08/24 02:20:24;;;;;;;10.15;6.70;;;;;;;18.15;94.59;101674.25;5094738;28;20113;-56
2023/08/24 02:22:49;;;;;;;11.30;7.50;;;;;;;18.14;95.51;101674.44;5098414;28;20024;-56
2023/08/24 02:25:15;;;;;;;10.32;7.40;;;;;;;18.16;95.73;101669.75;5100269;28;20078;-53
2023/08/24 02:27:40;;;;;;;9.57;7.50;;;;;;;18.16;95.71;101662.50;5102243;28;20051;-56
2023/08/24 02:30:06;;;;;;;11.73;7.95;;;;;;;18.16;95.52;101667.06;5099471;28;20028;-53
2023/08/24 02:32:31;;;;;;;11.60;8.02;;;;;;;18.17;96.24;101666.91;5095435;28;20040;-53
2023/08/24 02:34:57;;;;;;;10.98;7.20;;;;;;;18.20;95.99;101671.13;5101630;28;20358;-56
2023/08/24 02:37:22;;;;;;;10.65;7.07;;;;;;;18.18;96.09;101665.91;5100703;28;20386;-55
2023/08/24 02:39:47;;;;;;;10.90;7.28;;;;;;;18.19;95.49;101661.38;5102255;28;20376;-56
2023/08/24 02:42:13;;;;;;;11.93;7.05;;;;;;;18.17;95.55;101650.78;5103827;28;20020;-53
2023/08/24 02:44:38;;;;;;;14.07;7.35;;;;;;;18.16;95.46;101643.69;5099972;28;20043;-55
2023/08/24 02:47:04;;;;;;;10.07;7.63;;;;;;;18.16;95.98;101634.78;5101736;28;20077;-56
2023/08/24 02:49:30;;;;;;;12.98;7.38;;;;;;;18.16;96.73;101632.09;5099920;28;20118;-53
2023/08/24 02:51:55;;;;;;;11.50;7.68;;;;;;;18.14;97.41;101610.75;5103743;28;20119;-57
2023/08/24 02:54:20;;;;;;;12.63;7.47;;;;;;;18.11;98.30;101601.13;5102190;28;20028;-56
2023/08/24 02:56:45;;;;;;;12.23;8.10;;;;;;;18.10;98.58;101602.13;5101516;28;20062;-56
2023/08/24 02:59:11;;;;;;;13.38;8.50;;;;;;;18.07;99.72;101596.22;5098153;28;20019;-57
2023/08/24 03:01:38;;;;;;;9.25;7.93;;;;;;;18.05;99.85;101579.34;5101451;28;20533;-57
2023/08/24 03:04:05;;;;;;;10.73;7.97;;;;;;;18.06;100.00;101570.31;5099840;28;20051;-57
2023/08/24 03:06:30;;;;;;;10.75;8.35;;;;;;;18.03;100.00;101549.94;5098379;28;20483;-57
2023/08/24 03:08:55;;;;;;;12.98;8.60;;;;;;;17.98;100.00;101524.50;5102019;28;20024;-57
2023/08/24 03:11:21;;;;;;;12.20;8.75;;;;;;;17.94;100.00;101514.06;5100589;28;20103;-57
2023/08/24 03:13:46;;;;;;;11.05;9.38;;;;;;;17.91;100.00;101522.41;5099760;28;20024;-54
2023/08/24 03:16:11;;;;;;;15.45;9.93;;;;;;;17.89;100.00;101534.31;5099658;28;20103;-57
2023/08/24 03:18:37;;;;;;;12.38;9.82;;;;;;;17.85;100.00;101528.38;5100177;28;20497;-57
2023/08/24 03:21:02;;;;;;;11.93;9.95;;;;;;;17.88;100.00;101529.94;5098411;28;20099;-56
2023/08/24 03:23:28;;;;;;;11.98;10.65;;;;;;;17.88;100.00;101511.13;5098938;28;20027;-57
2023/08/24 03:25:53;;;;;;;16.33;10.52;;;;;;;17.87;100.00;101502.22;5104136;28;20063;-55
2023/08/24 03:28:19;;;;;;;15.02;11.13;;;;;;;17.87;100.00;101496.84;5100585;28;20143;-57
2023/08/24 03:30:48;;;;;;;15.05;10.60;;;;;;;17.85;100.00;101488.06;5100543;28;20020;-57
2023/08/24 03:33:14;;;;;;;16.10;10.52;;;;;;;17.85;100.00;101485.38;5103409;28;20486;-56
2023/08/24 03:35:40;;;;;;;16.13;10.60;;;;;;;17.84;100.00;101467.56;5101886;28;20111;-57
2023/08/24 03:38:05;;;;;;;18.77;12.07;;;;;;;17.86;100.00;101470.94;5100732;28;20482;-57
2023/08/24 03:40:30;;;;;;;19.25;12.02;;;;;;;17.87;100.00;101461.03;5097317;28;20032;-57
2023/08/24 03:42:56;;;;;;;18.15;12.32;;;;;;;17.86;100.00;101456.66;5104473;28;20024;-55
2023/08/24 03:45:22;;;;;;;21.05;13.45;;;;;;;17.85;100.00;101458.50;5100531;28;20020;-57
2023/08/24 03:47:48;;;;;;;20.67;12.93;;;;;;;17.85;100.00;101450.44;5098343;28;20027;-54
2023/08/24 03:50:13;;;;;;;17.80;13.38;;;;;;;17.88;100.00;101455.53;5096969;28;20056;-57
2023/08/24 03:52:39;;;;;;;17.17;14.30;;;;;;;17.88;100.00;101455.53;5102897;28;20377;-56
2023/08/24 03:55:06;;;;;;;18.00;14.13;;;;;;;17.93;100.00;101460.44;5100840;28;20020;-56
2023/08/24 03:57:31;;;;;;;21.98;16.20;;;;;;;17.96;100.00;101476.28;5092832;28;20062;-57
2023/08/24 03:59:57;;;;;;;21.65;15.27;;;;;;;17.98;100.00;101479.66;5102370;28;20020;-57
2023/08/24 04:02:23;;;;;;;18.50;15.40;;;;;;;18.01;100.00;101483.91;5100667;28;20369;-55
2023/08/24 04:04:48;;;;;;;21.67;14.98;;;;;;;17.99;100.00;101473.28;5097070;28;20036;-57
2023/08/24 04:07:13;;;;;;;21.92;14.80;;;;;;;18.03;100.00;101479.22;5100254;28;20023;-56
2023/08/24 04:09:40;;;;;;;18.67;13.18;;;;;;;18.03;100.00;101481.91;5098344;28;20024;-56
2023/08/24 04:12:05;;;;;;;18.13;13.52;;;;;;;18.02;100.00;101482.88;5103544;28;20423;-56
2023/08/24 04:14:31;;;;;;;19.15;13.02;;;;;;;18.04;100.00;101480.91;5098941;28;20027;-57
2023/08/24 04:16:56;;;;;;;21.15;14.20;;;;;;;18.03;100.00;101487.28;5100119;28;20107;-56
2023/08/24 04:19:22;;;;;;;21.42;14.25;;;;;;;18.04;100.00;101494.34;5103769;28;20073;-57
2023/08/24 04:21:47;;;;;;;17.60;13.70;;;;;;;18.01;100.00;101492.78;5103834;28;20024;-57
2023/08/24 04:24:12;;;;;;;17.92;12.95;;;;;;;18.01;100.00;101498.19;5095289;28;20480;-57
2023/08/24 04:26:37;;;;;;;18.73;13.57;;;;;;;17.99;100.00;101504.72;5104319;28;20366;-57
2023/08/24 04:29:03;;;;;;;18.25;12.98;;;;;;;18.00;100.00;101501.88;5096277;28;20063;-57
2023/08/24 04:31:28;;;;;;;15.20;12.60;;;;;;;18.00;100.00;101503.69;5102817;28;20047;-57
2023/08/24 04:33:54;;;;;;;19.15;13.57;;;;;;;17.97;100.00;101504.00;5102270;28;20118;-57
2023/08/24 04:36:19;;;;;;;19.08;13.52;;;;;;;17.96;100.00;101499.63;5095729;28;20107;-55
2023/08/24 04:38:44;;;;;;;17.65;13.40;;;;;;;17.97;100.00;101495.94;5098504;28;20024;-55
2023/08/24 04:41:12;;;;;;;18.08;13.43;;;;;;;17.96;100.00;101500.47;5101162;28;20022;-55
2023/08/24 04:43:37;;;;;;;21.75;14.45;;;;;;;17.90;100.00;101499.25;5099330;28;20066;-55
2023/08/24 04:46:02;;;;;;;18.42;13.80;;;;;;;17.92;100.00;101504.47;5100502;28;20028;-55
2023/08/24 04:48:32;;;;;;;22.88;14.25;;;;;;;17.89;100.00;101497.53;5102415;28;20060;-55
2023/08/24 04:50:58;;;;;;;20.05;14.63;;;;;;;17.88;100.00;101498.53;5097614;28;20044;-53
2023/08/24 04:53:24;;;;;;;19.95;14.65;;;;;;;17.88;100.00;101498.53;5097953;28;20039;-54
2023/08/24 04:55:49;;;;;;;20.63;14.98;;;;;;;17.87;100.00;101495.97;5100315;28;20061;-53
2023/08/24 04:58:15;;;;;;;19.65;15.10;;;;;;;17.83;100.00;101491.88;5099625;28;20032;-54
2023/08/24 05:00:40;;;;;;;20.17;14.95;;;;;;;17.80;100.00;101489.50;5099605;28;20470;-55
2023/08/24 05:03:06;;;;;;;17.35;14.77;;;;;;;17.78;100.00;101496.84;5099660;28;20024;-54
2023/08/24 05:05:33;;;;;;;23.67;16.35;;;;;;;17.71;100.00;101502.81;5096675;28;20031;-53
2023/08/24 05:08:00;;;;;;;17.42;14.48;;;;;;;17.69;100.00;101504.81;5097555;28;20026;-56
2023/08/24 05:10:26;;;;;;;22.00;15.18;;;;;;;17.69;100.00;101509.34;5097439;28;20045;-54
2023/08/24 05:12:51;;;;;;;20.90;15.32;;;;;;;17.68;100.00;101497.75;5099330;28;20032;-54
2023/08/24 05:15:17;;;;;;;20.23;15.48;;;;;;;17.68;100.00;101499.59;5100958;28;20020;-56
2023/08/24 05:17:42;;;;;;;20.30;15.40;;;;;;;17.68;100.00;101496.91;5097559;28;20573;-55
2023/08/24 05:20:10;;;;;;;20.23;15.10;;;;;;;17.65;100.00;101489.13;5098925;28;20020;-54
2023/08/24 05:22:36;;;;;;;19.30;15.40;;;;;;;17.62;100.00;101492.09;5097634;28;20034;-57
2023/08/24 05:25:01;;;;;;;20.50;16.05;;;;;;;17.64;100.00;101482.09;5096484;28;20024;-54
2023/08/24 05:27:27;;;;;;;23.52;16.90;;;;;;;17.66;100.00;101472.88;5103881;28;20036;-54
2023/08/24 05:29:52;;;;;;;21.48;16.48;;;;;;;17.68;100.00;101475.41;5101000;28;20076;-54
2023/08/24 05:32:17;;;;;;;19.60;15.90;;;;;;;17.68;100.00;101472.72;5099864;28;20447;-56
2023/08/24 05:34:42;;;;;;;21.48;16.23;;;;;;;17.66;100.00;101478.25;5099277;28;20032;-54
2023/08/24 05:37:08;;;;;;;22.95;16.48;;;;;;;17.69;100.00;101477.13;5105410;28;20465;-54
2023/08/24 05:39:33;;;;;;;19.63;16.40;;;;;;;17.70;100.00;101470.72;5102039;28;20342;-56
2023/08/24 05:41:58;;;;;;;20.70;16.42;;;;;;;17.70;100.00;101473.41;5104301;28;20024;-57
2023/08/24 05:44:24;;;;;;;20.35;17.05;;;;;;;17.74;100.00;101469.44;5104642;28;20031;-57
2023/08/24 05:46:49;;;;;;;22.88;17.42;;;;;;;17.75;100.00;101469.31;5101520;28;20023;-56
2023/08/24 05:49:14;;;;;;;25.55;18.02;;;;;;;17.78;100.00;101470.00;5102212;28;20051;-56
2023/08/24 05:51:40;;;;;;;23.58;17.70;;;;;;;17.78;100.00;101464.63;5098571;28;20024;-56
2023/08/24 05:54:05;;;;;;;24.27;16.90;;;;;;;17.83;100.00;101459.63;5099198;28;20051;-56
2023/08/24 05:56:30;;;;;;;24.58;17.95;;;;;;;17.83;100.00;101451.56;5098420;28;20107;-55
2023/08/24 05:58:58;;;;;;;21.85;17.15;;;;;;;17.85;100.00;101446.88;5100362;28;20103;-53
2023/08/24 06:01:23;;;;;;;21.05;17.35;;;;;;;17.88;100.00;101442.09;5104122;28;20030;-54
2023/08/24 06:03:49;;;;;;;24.10;17.40;;;;;;;17.93;100.00;101428.19;5102664;28;20031;-55
2023/08/24 06:06:14;;;;;;;20.48;16.92;;;;;;;17.94;100.00;101428.06;5099394;28;20412;-53
2023/08/24 06:08:40;;;;;;;22.23;17.63;;;;;;;17.98;100.00;101417.84;5103325;28;20039;-54
2023/08/24 06:11:05;;;;;;;22.08;16.98;;;;;;;18.02;100.00;101407.63;5087406;28;20031;-54
2023/08/24 06:13:30;;;;;;;19.77;17.23;;;;;;;18.04;100.00;101401.09;5087370;28;20028;-56
2023/08/24 06:15:56;;;;;;;21.27;17.13;;;;;;;18.08;100.00;101396.28;5090380;28;20020;-52
2023/08/24 06:18:21;;;;;;;19.15;17.08;;;;;;;18.11;100.00;101401.34;5096698;28;20035;-52
2023/08/24 06:20:49;;;;;;;20.13;16.90;;;;;;;18.15;100.00;101405.41;5097293;28;20017;-53
2023/08/24 06:23:16;;;;;;;21.38;17.25;;;;;;;18.19;100.00;101414.03;5098670;28;20084;-53
2023/08/24 06:25:41;;;;;;;23.55;17.05;;;;;;;18.24;100.00;101417.09;5099699;28;20393;-53
2023/08/24 06:28:08;;;;;;;21.67;16.95;;;;;;;18.27;100.00;101414.94;5097030;28;20020;-52
2023/08/24 06:30:40;;;;;;;22.40;17.48;;;;;;;18.33;100.00;101415.31;5103607;28;20421;-54
2023/08/24 06:33:06;;;;;;;21.25;16.48;;;;;;;18.40;100.00;101429.81;5098410;28;20114;-53
2023/08/24 06:35:35;;;;;;;21.27;17.67;;;;;;;18.45;100.00;101419.44;5098753;28;20031;-53
2023/08/24 06:38:01;;;;;;;22.67;16.27;;;;;;;18.48;100.00;101411.94;5097378;28;20035;-53
2023/08/24 06:40:27;;;;;;;21.48;17.17;;;;;;;18.56;100.00;101413.84;5099173;28;20035;-52
2023/08/24 06:42:52;;;;;;;21.92;16.80;;;;;;;18.62;100.00;101410.53;5103719;28;20024;-52
2023/08/24 06:45:18;;;;;;;25.00;16.50;;;;;;;18.70;100.00;101409.72;5097810;28;20035;-53
2023/08/24 06:47:44;;;;;;;22.92;16.15;;;;;;;18.79;100.00;101416.03;5096493;28;20024;-53
2023/08/24 06:50:09;;;;;;;19.98;15.35;;;;;;;18.88;100.00;101420.47;5104071;28;20524;-54
2023/08/24 06:52:35;;;;;;;18.70;15.23;;;;;;;18.96;100.00;101408.94;5099050;28;20504;-52
2023/08/24 06:55:00;;;;;;;18.88;14.50;;;;;;;19.05;100.00;101413.34;5098691;28;20517;-53
2023/08/24 06:57:26;;;;;;;20.10;13.60;;;;;;;19.16;100.00;101412.25;5097753;28;20020;-53
2023/08/24 06:59:51;;;;;;;17.30;13.75;;;;;;;19.26;98.27;101414.81;5100407;28;20024;-52
2023/08/24 07:02:17;;;;;;;19.73;13.32;;;;;;;19.38;97.80;101422.47;5093736;28;20451;-52
2023/08/24 07:04:43;;;;;;;16.73;13.57;;;;;;;19.53;97.86;101419.97;5098180;28;20044;-55
2023/08/24 07:07:09;;;;;;;20.13;13.35;;;;;;;19.72;96.25;101401.88;5097161;28;20020;-52
2023/08/24 07:09:35;;;;;;;16.13;13.20;;;;;;;19.98;96.74;101401.78;5091745;28;20043;-54
2023/08/24 07:12:06;;;;;;;17.00;12.95;;;;;;;20.14;94.01;101399.09;5095937;28;20035;-53
2023/08/24 07:14:31;;;;;;;18.63;12.90;;;;;;;20.37;94.15;101394.91;5101021;28;20024;-53
2023/08/24 07:16:57;;;;;;;17.85;13.07;;;;;;;20.55;91.98;101392.03;5093497;28;20031;-52
2023/08/24 07:19:22;;;;;;;15.02;12.18;;;;;;;20.73;90.48;101387.31;5102713;28;20041;-56
2023/08/24 07:21:48;;;;;;;16.60;11.68;;;;;;;20.93;90.56;101400.44;5096177;28;20499;-56
2023/08/24 07:24:13;;;;;;;16.30;11.70;;;;;;;21.14;88.64;101392.63;5102752;28;20031;-55
2023/08/24 07:26:41;;;;;;;14.48;10.95;;;;;;;21.33;88.10;101393.22;5101906;28;20045;-54
2023/08/24 07:29:06;;;;;;;16.27;11.55;;;;;;;21.54;86.00;101395.38;5104491;28;20023;-55
2023/08/24 07:31:31;;;;;;;20.45;11.15;;;;;;;21.69;85.68;101393.59;5094567;28;20497;-54
2023/08/24 07:33:56;;;;;;;17.77;11.10;;;;;;;21.89;83.06;101395.84;5100968;28;20034;-53
2023/08/24 07:36:22;;;;;;;22.83;10.90;;;;;;;22.13;83.05;101387.56;5097880;28;20293;-53
2023/08/24 07:38:47;;;;;;;15.45;10.98;;;;;;;22.33;81.30;101392.50;5092578;28;20111;-56
2023/08/24 07:41:13;;;;;;;13.40;10.05;;;;;;;22.50;81.91;101391.34;5097562;28;20468;-52
2023/08/24 07:43:38;;;;;;;16.02;10.00;;;;;;;22.70;79.92;101383.56;5094411;28;20024;-56
2023/08/24 07:46:04;;;;;;;12.25;10.25;;;;;;;22.81;78.39;101384.13;5094248;28;20022;-53
2023/08/24 07:48:30;;;;;;;14.00;10.25;;;;;;;22.95;79.47;101377.03;5100321;28;20066;-53
2023/08/24 07:50:55;;;;;;;15.45;10.40;;;;;;;23.06;77.57;101381.97;5094496;28;20475;-56
2023/08/24 07:53:20;;;;;;;15.75;9.68;;;;;;;23.19;76.97;101392.19;5097409;28;20031;-56
2023/08/24 07:55:46;;;;;;;16.80;9.65;;;;;;;23.31;76.73;101389.84;5090903;28;20108;-53
2023/08/24 07:58:12;;;;;;;11.88;9.05;;;;;;;23.44;78.28;101388.16;5096107;28;20042;-54
2023/08/24 08:00:37;;;;;;;12.52;8.77;;;;;;;23.56;76.54;101393.09;5097584;28;20016;-56
2023/08/24 08:03:03;;;;;;;12.15;8.55;;;;;;;23.66;74.73;101401.75;5097205;28;20024;-54
2023/08/24 08:05:28;;;;;;;13.88;8.60;;;;;;;23.75;73.66;101397.91;5096709;28;20030;-56
2023/08/24 08:07:54;;;;;;;15.02;9.15;;;;;;;23.93;75.07;101388.53;5100067;28;20020;-56
2023/08/24 08:10:21;;;;;;;14.80;8.07;;;;;;;24.03;74.21;101386.31;5098314;28;20051;-55
2023/08/24 08:12:47;;;;;;;11.32;8.68;;;;;;;24.10;71.73;101383.66;5099316;28;20278;-55
2023/08/24 08:15:12;;;;;;;10.65;7.32;;;;;;;24.30;71.17;101381.16;5093781;28;20024;-53
2023/08/24 08:17:37;;;;;;;11.43;7.88;;;;;;;24.44;71.29;101376.69;5096894;28;20397;-53
2023/08/24 08:20:03;;;;;;;12.10;8.13;;;;;;;24.53;69.21;101364.63;5100773;28;20028;-54
2023/08/24 08:22:28;;;;;;;10.77;7.65;;;;;;;24.61;69.98;101367.22;5096426;28;20016;-53
2023/08/24 08:24:55;;;;;;;13.57;8.30;;;;;;;24.78;69.47;101361.50;5102870;28;20157;-55
2023/08/24 08:27:21;;;;;;;15.55;8.60;;;;;;;24.91;69.04;101358.84;5097083;28;20441;-53
2023/08/24 08:29:46;;;;;;;14.82;7.70;;;;;;;25.11;70.34;101354.38;5098441;28;20054;-56
2023/08/24 08:32:12;;;;;;;10.50;7.28;;;;;;;25.19;67.44;101363.41;5099398;28;20020;-56
2023/08/24 08:34:37;;;;;;;12.30;7.47;;;;;;;25.21;66.44;101361.31;5099360;28;20043;-53
2023/08/24 08:37:03;;;;;;;11.55;7.53;;;;;;;25.37;66.66;101349.28;5104220;28;20020;-53
2023/08/24 08:39:28;;;;;;;8.65;6.88;;;;;;;25.53;67.71;101345.34;5100563;28;20016;-53
2023/08/24 08:41:54;;;;;;;16.42;8.43;;;;;;;25.57;66.35;101333.88;5101890;28;20032;-54
2023/08/24 08:44:21;;;;;;;12.10;7.97;;;;;;;25.65;65.86;101336.41;5100806;28;20027;-54
2023/08/24 08:46:49;;;;;;;13.30;7.95;;;;;;;25.74;65.58;101336.22;5092442;28;20119;-53
2023/08/24 08:49:15;;;;;;;12.60;7.60;;;;;;;25.77;65.33;101314.88;5098801;28;20067;-53
2023/08/24 08:51:42;;;;;;;11.60;7.50;;;;;;;25.89;64.77;101306.91;5089398;28;20501;-55
2023/08/24 08:54:07;;;;;;;19.13;7.70;;;;;;;25.94;64.45;101301.69;5102232;28;20040;-56
2023/08/24 08:56:33;;;;;;;11.63;7.03;;;;;;;25.99;64.54;101296.50;5093150;28;20043;-56
2023/08/24 08:59:00;;;;;;;12.50;7.53;;;;;;;26.07;65.11;101291.91;5096347;28;20352;-53
2023/08/24 09:01:26;;;;;;;15.35;8.27;;;;;;;26.12;63.71;101290.22;5096895;28;20035;-52
2023/08/24 09:03:53;;;;;;;15.07;7.88;;;;;;;26.20;64.94;101267.38;5099851;28;20038;-53
2023/08/24 09:06:19;;;;;;;12.80;8.13;;;;;;;26.28;64.28;101255.41;5096194;28;20032;-53
2023/08/24 09:08:45;;;;;;;14.95;7.60;;;;;;;26.39;64.42;101252.06;5097187;28;20024;-56
2023/08/24 09:11:10;;;;;;;11.30;7.82;;;;;;;26.46;65.57;101247.44;5095298;28;20032;-54
2023/08/24 09:13:35;;;;;;;11.30;7.25;;;;;;;26.53;64.10;101239.22;5098424;28;20491;-52
2023/08/24 09:16:08;;;;;;;13.53;8.27;;;;;;;26.55;63.16;101234.44;5097564;28;20454;-54
2023/08/24 09:18:38;;;;;;;12.20;8.00;;;;;;;26.51;62.13;101223.13;5094121;28;20323;-53
2023/08/24 09:21:14;;;;;;;9.00;7.45;;;;;;;26.58;64.09;101217.66;5098225;28;20032;-54
2023/08/24 09:23:55;;;;;;;10.98;7.15;;;;;;;26.67;63.57;101215.56;5100312;28;20427;-53
2023/08/24 09:26:32;;;;;;;11.07;6.93;;;;;;;26.70;63.26;101210.50;5097070;28;20079;-53
2023/08/24 09:28:57;;;;;;;11.40;6.93;;;;;;;26.75;63.56;101218.88;5104092;28;20035;-55
2023/08/24 09:31:34;;;;;;;12.70;7.60;;;;;;;26.73;61.47;101223.72;5100731;28;20016;-52
2023/08/24 09:34:03;;;;;;;11.23;6.50;;;;;;;26.87;62.23;101226.38;5101143;28;20020;-53
2023/08/24 09:36:32;;;;;;;9.20;6.50;;;;;;;26.85;64.04;101232.03;5098421;28;20081;-52
2023/08/24 09:38:58;;;;;;;14.50;8.10;;;;;;;27.02;64.55;101242.44;5101497;28;20477;-53
2023/08/24 09:41:24;;;;;;;13.13;8.77;;;;;;;27.04;62.06;101262.97;5106840;28;20020;-53
2023/08/24 09:43:49;;;;;;;14.43;8.95;;;;;;;27.11;63.11;101271.97;5098458;28;20019;-53
2023/08/24 09:46:19;;;;;;;13.73;8.00;;;;;;;27.09;64.82;101275.97;5098433;28;20077;-53
2023/08/24 09:48:44;;;;;;;14.90;8.73;;;;;;;27.23;62.35;101280.31;5096414;28;20039;-53
2023/08/24 09:51:11;;;;;;;13.17;8.40;;;;;;;27.24;64.10;101272.94;5103090;28;20035;-55
2023/08/24 09:53:40;;;;;;;13.10;7.72;;;;;;;27.37;61.51;101280.25;5095020;28;20929;-55
2023/08/24 09:56:08;;;;;;;13.65;7.53;;;;;;;27.34;64.40;101286.97;5096231;28;20481;-53
2023/08/24 09:58:34;;;;;;;12.35;8.15;;;;;;;27.42;63.01;101277.72;5096356;28;20040;-54
2023/08/24 10:01:01;;;;;;;11.77;8.70;;;;;;;27.32;61.41;101289.09;5098965;28;20031;-53
2023/08/24 10:03:27;;;;;;;14.77;9.07;;;;;;;27.30;61.65;101293.94;5103562;28;20036;-53
2023/08/24 10:05:58;;;;;;;12.93;8.23;;;;;;;27.35;63.29;101304.19;5100393;28;20059;-54
2023/08/24 10:08:29;;;;;;;13.65;8.02;;;;;;;27.39;63.04;101303.53;5095201;28;20027;-52
2023/08/24 10:10:58;;;;;;;10.70;7.15;;;;;;;27.34;60.50;101307.97;5100379;28;20032;-53
2023/08/24 10:13:33;;;;;;;9.75;6.45;;;;;;;27.27;61.22;101313.44;5093610;28;20031;-52
2023/08/24 10:15:59;;;;;;;11.88;5.90;;;;;;;27.19;62.04;101311.78;5098230;28;20038;-53
2023/08/24 10:18:26;;;;;;;9.45;5.47;;;;;;;27.24;60.82;101309.22;5097260;28;20115;-53
2023/08/24 10:20:52;;;;;;;10.52;4.80;;;;;;;27.17;63.96;101297.53;5098798;28;20032;-53
2023/08/24 10:23:19;;;;;;;7.55;5.05;;;;;;;27.10;60.78;101292.09;5102023;28;20069;-52
2023/08/24 10:25:46;;;;;;;7.57;4.22;;;;;;;26.98;63.00;101293.84;5102098;28;20035;-53
2023/08/24 10:28:13;;;;;;;6.68;4.80;;;;;;;26.88;64.00;101297.03;5101666;28;20458;-52
2023/08/24 10:30:39;;;;;;;8.45;4.45;;;;;;;26.97;65.71;101304.97;5100635;28;20047;-53
2023/08/24 10:33:06;;;;;;;8.45;4.68;;;;;;;26.86;62.36;101314.63;5096258;28;20020;-53
2023/08/24 10:35:32;;;;;;;8.30;4.28;;;;;;;26.75;65.22;101319.69;5097181;28;20034;-52
2023/08/24 10:37:59;;;;;;;11.13;4.60;;;;;;;26.73;64.84;101326.41;5101539;28;20024;-53
2023/08/24 10:40:35;;;;;;;8.65;5.00;;;;;;;26.71;65.72;101312.16;5091312;28;20020;-53
2023/08/24 10:43:05;;;;;;;9.63;4.30;;;;;;;26.53;65.33;101329.13;5103362;28;20495;-53
2023/08/24 10:45:59;;;;;;;7.05;4.20;;;;;;;26.59;66.33;101333.75;5103670;28;20066;-53
2023/08/24 10:48:27;;;;;;;9.68;4.10;;;;;;;26.43;65.78;101320.56;5096283;28;20024;-53
2023/08/24 10:51:26;;;;;;;6.18;4.20;;;;;;;26.49;66.70;101323.28;5092978;28;20491;-53
2023/08/24 10:53:55;;;;;;;6.97;4.20;;;;;;;26.26;66.22;101323.72;5051185;28;20081;-51
2023/08/24 10:56:25;;;;;;;9.40;5.15;;;;;;;26.18;66.93;101323.91;5098136;28;20035;-52
2023/08/24 10:59:11;;;;;;;9.48;5.15;;;;;;;26.20;67.17;101316.41;5095744;28;20108;-51
2023/08/24 11:01:54;;;;;;;10.25;4.53;;;;;;;26.15;67.67;101299.88;5091491;28;20058;-50
2023/08/24 11:04:20;;;;;;;14.80;5.65;;;;;;;26.01;67.73;101302.59;5098727;28;20028;-51
2023/08/24 11:06:54;;;;;;;9.80;4.97;;;;;;;26.03;68.58;101303.19;5095830;28;20016;-51
2023/08/24 11:09:20;;;;;;;10.48;4.80;;;;;;;26.07;69.66;101300.06;5098318;27;20051;-51
2023/08/24 11:12:03;;;;;;;9.90;5.88;;;;;;;26.02;68.40;101293.34;5097318;28;20492;-51